Flight Track Log - Related Links

Times and Time Zones

All times are in EDT time to prevent confusion due to time zone crossing. See the SKW4600 flight status page for this flight to view local times or setup timezone preferences in your user account.

Time Position Orientation Groundspeed Altitude Reporting Facility
EDT Latitude Longitude Course Direction KTS MPH feet Rate Location/Type
Sun 09:32:15 AM 46.9322 -114.1231 180° South 159 183 4,500  Level Salt Lake Center
Sun 09:33:16 AM 46.9656 -114.1800 311° West 182 209 6,800 2,361 Climbing Salt Lake Center
Sun 09:34:17 AM 46.9842 -114.2644 288° West 229 264 9,300 2,311 Climbing Salt Lake Center
Sun 09:35:00 AM 46.5722 -113.9592 180° South  Level Estimated
Sun 09:35:18 AM 46.9194 -114.2767 187° South 250 288 11,500  Level Salt Lake Center
Sun 09:36:00 AM 46.4912 -114.0126 204° Southwest  Level FlightAware Approximate
Sun 09:36:18 AM 46.8422 -114.2661 175° South 281 323 13,300  Level Salt Lake Center
Sun 09:37:00 AM 46.4054 -113.9788 180° South  Level Estimated
Sun 09:37:19 AM 46.7544 -114.2592 177° South 311 358 15,700  Level Salt Lake Center
Sun 09:38:20 AM 46.6572 -114.2494 176° South 321 369 17,800 1,967 Climbing Salt Lake Center
Sun 09:39:21 AM 46.5628 -114.2394 176° South 336 387 19,700 1,574 Climbing Salt Lake Center
Sun 09:40:22 AM 46.4808 -114.2319 176° South 349 402 21,000 1,140 Climbing Salt Lake Center
Sun 09:41:22 AM 46.3772 -114.2211 176° South 373 429 22,000 992 Climbing Salt Lake Center
Sun 09:42:23 AM 46.2678 -114.2108 176° South 393 452 23,000 1,279 Climbing Salt Lake Center
Sun 09:43:24 AM 46.1344 -114.1628 166° South 407 468 24,600 1,525 Climbing Salt Lake Center
Sun 09:44:25 AM 46.0256 -114.1206 165° South 408 470 26,100 1,475 Climbing Salt Lake Center
Sun 09:45:26 AM 45.9189 -114.0781 165° South 405 466 27,600 1,230 Climbing Salt Lake Center
Sun 09:46:27 AM 45.8125 -114.0358 165° South 402 463 28,600 992 Climbing Salt Lake Center
Sun 09:47:27 AM 45.7044 -113.9942 165° South 402 463 29,600 843 Climbing Salt Lake Center
Sun 09:48:28 AM 45.5875 -113.9511 166° South 404 465 30,300 590 Climbing Salt Lake Center
Sun 09:49:29 AM 45.4911 -113.9128 164° South 417 480 30,800 339 Climbing Salt Lake Center
Sun 09:50:32 AM 45.3531 -113.8600 165° South 425 489 31,000 98 Climbing Salt Lake Center
Sun 09:51:31 AM 45.2403 -113.8181 165° South 442 509 31,000  Level Salt Lake Center
Sun 09:52:32 AM 45.1275 -113.7744 165° South 442 509 31,000  Level Salt Lake Center
Sun 09:53:33 AM 44.9983 -113.7239 165° South 434 499 31,000  Level Salt Lake Center
Sun 09:54:34 AM 44.8889 -113.6831 165° South 430 495 31,000  Level Salt Lake Center
Sun 09:55:35 AM 44.7800 -113.6419 165° South 427 491 31,000  Level Salt Lake Center
Sun 09:56:36 AM 44.6547 -113.5950 165° South 424 488 31,000  Level Salt Lake Center
Sun 09:57:36 AM 44.5486 -113.5547 165° South 420 483 31,000  Level Salt Lake Center
Sun 09:58:37 AM 44.4269 -113.5094 165° South 413 475 31,000  Level Salt Lake Center
Sun 09:59:38 AM 44.3219 -113.4703 165° South 411 473 31,000  Level Salt Lake Center
Sun 10:00:39 AM 44.2175 -113.4322 165° South 411 473 31,000  Level Salt Lake Center
Sun 10:01:40 AM 44.0967 -113.3875 165° South 408 470 31,000  Level Salt Lake Center
Sun 10:02:41 AM 43.9947 -113.3500 165° South 403 464 31,000  Level Salt Lake Center
Sun 10:03:42 AM 43.8944 -113.3136 165° South 396 456 31,000  Level Salt Lake Center
Sun 10:04:43 AM 43.7786 -113.2714 165° South 389 448 31,000  Level Salt Lake Center
Sun 10:05:44 AM 43.6819 -113.2364 165° South 382 440 31,000  Level Salt Lake Center
Sun 10:06:45 AM 43.5869 -113.2031 166° South 372 428 31,000 -590 Level Salt Lake Center
Sun 10:07:46 AM 43.4750 -113.1633 166° South 372 428 29,800 -1,033 Descending Salt Lake Center
Sun 10:08:47 AM 43.3736 -113.1269 165° South 386 444 28,900 -885 Descending Salt Lake Center
Sun 10:09:48 AM 43.2544 -113.0842 165° South 393 452 28,000 -443 Descending Salt Lake Center
Sun 10:10:49 AM 43.1547 -113.0500 166° South 391 450 28,000  Level Salt Lake Center
Sun 10:11:50 AM 43.0581 -113.0144 165° South 382 440 28,000  Level Salt Lake Center
Sun 10:12:51 AM 42.9483 -112.9761 166° South 370 426 28,000  Level Salt Lake Center
Sun 10:13:52 AM 42.8586 -112.9442 165° South 356 410 28,000  Level Salt Lake Center
Sun 10:14:53 AM 42.7703 -112.9139 166° South 348 400 28,000  Level Salt Lake Center
Sun 10:15:54 AM 42.6706 -112.8789 166° South 340 391 28,000  Level Salt Lake Center
Sun 10:16:55 AM 42.5794 -112.8494 167° South 340 391 28,000  Level Salt Lake Center
Sun 10:17:56 AM 42.4889 -112.8169 165° South 340 391 28,000  Level Salt Lake Center
Sun 10:18:57 AM 42.3978 -112.7856 166° South 339 390 28,000  Level Salt Lake Center
Sun 10:19:58 AM 42.3067 -112.7533 165° South 340 391 28,000  Level Salt Lake Center
Sun 10:20:59 AM 42.2153 -112.7225 166° South 339 390 28,000  Level Salt Lake Center
Sun 10:22:00 AM 42.1233 -112.6911 166° South 340 391 28,000 -590 Level Salt Lake Center
Sun 10:23:01 AM 42.0319 -112.6589 165° South 340 391 26,800 -1,574 Descending Salt Lake Center
Sun 10:24:02 AM 41.9344 -112.6275 167° South 357 411 24,800 -2,164 Descending Salt Lake Center
Sun 10:25:03 AM 41.8133 -112.5861 166° South 371 427 22,400 -2,164 Descending Salt Lake Center
Sun 10:26:04 AM 41.7108 -112.5514 166° South 376 433 20,400 -1,920 Descending Salt Lake Center
Sun 10:26:18 AM 41.6922 -112.5350 147° Southeast 387 445 20,000 -1,935 Descending Salt Lake Center
Sun 10:27:06 AM 41.6047 -112.5164 171° South 389 448 18,400 -2,239 Descending Salt Lake Center
Sun 10:27:25 AM 41.5731 -112.4950 153° Southeast 383 441 17,500 -1,377 Descending Salt Lake Center
Sun 10:28:07 AM 41.5092 -112.4717 165° South 367 422 17,000 -492 Descending Salt Lake Center
Sun 10:28:26 AM 41.4844 -112.4361 133° Southeast 338 389 17,000  Level Salt Lake Center
Sun 10:29:08 AM 41.4275 -112.4056 158° South 344 396 17,000 -100 Level Salt Lake Center
Sun 10:29:26 AM 41.3978 -112.3767 144° Southeast 345 397 16,900 -1,377 Descending Salt Lake Center
Sun 10:30:09 AM 41.3431 -112.3469 158° South 344 396 15,600 -2,164 Descending Salt Lake Center
Sun 10:30:27 AM 41.3111 -112.3172 145° Southeast 343 395 14,700 -2,066 Descending Salt Lake Center
Sun 10:31:10 AM 41.2608 -112.2881 156° South 338 389 13,500 -1,479 Descending Salt Lake Center
Sun 10:31:40 AM 41.2119 -112.2483 149° Southeast 334 384 12,900 -984 Descending Salt Lake Center
Sun 10:32:11 AM 41.1797 -112.2283 155° Southeast 336 387 12,500 -984 Descending Salt Lake Center
Sun 10:32:41 AM 41.1311 -112.1872 147° Southeast 330 380 11,900 -968 Descending Salt Lake Center
Sun 10:33:13 AM 41.1014 -112.1683 154° Southeast 333 383 11,500 -885 Descending Salt Lake Center
Sun 10:33:42 AM 41.0472 -112.1417 160° South 326 375 11,000 -492 Descending Salt Lake Center
Sun 10:34:14 AM 40.9986 -112.1319 171° South 327 376 11,000  Level Salt Lake Center
Sun 10:34:49 AM 40.9458 -112.1192 170° South 325 374 11,000  Level Salt Lake Center
Sun 10:35:15 AM 40.9092 -112.1122 172° South 328 377 11,000  Level Salt Lake Center
Sun 10:35:49 AM 40.8594 -112.1061 175° South 288 331 11,000  Level Salt Lake Center
Sun 10:36:16 AM 40.8294 -112.1017 174° South 276 318 11,000  Level Salt Lake Center
Sun 10:36:56 AM 40.7806 -112.0986 177° South 258 297 11,000  Level Salt Lake Center
Sun 10:37:17 AM 40.7592 -112.0928 168° South 260 299 11,000 -419 Level Salt Lake Center
Sun 10:37:39 AM 40.7253 -112.0919 179° South 262 302 10,700 -871 Descending Salt Lake Center
Sun 10:38:19 AM 40.6878 -112.0844 171° South 260 299 10,100 -689 Descending Salt Lake Center
Sun 10:38:40 AM 40.6531 -112.0853 181° South 259 298 10,000 -98 Descending Salt Lake Center
Sun 10:39:20 AM 40.6167 -112.0764 169° South 258 297 10,000  Level Salt Lake Center
Sun 10:39:41 AM 40.5828 -112.0778 182° South 261 300 10,000  Level Salt Lake Center
Sun 10:40:21 AM 40.5428 -112.0681 170° South 265 305 10,000  Level Salt Lake Center
Sun 10:40:42 AM 40.5058 -112.0700 182° South 268 308 10,000  Level Salt Lake Center
Sun 10:41:22 AM 40.4567 -112.0578 169° South 261 300 10,000  Level Salt Lake Center
Sun 10:41:48 AM 40.4264 -112.0600 183° South 257 296 10,000 97 Level Salt Lake Center
Sun 10:42:24 AM 40.3864 -112.0497 169° South 256 295 10,100 -98 Climbing Salt Lake Center
Sun 10:42:49 AM 40.3561 -112.0528 184° South 248 285 9,900 -393 Descending Salt Lake Center
Sun 10:43:25 AM 40.3328 -112.0261 139° Southeast 194 223 9,700 -590 Descending Salt Lake Center
Sun 10:43:50 AM 40.3333 -112.0042 88° East 168 193 9,300 -689 Descending Salt Lake Center
Sun 10:44:26 AM 40.3350 -111.9583 87° East 188 216 9,000 -295 Descending Salt Lake Center
Sun 10:44:51 AM 40.3564 -111.9569 North 178 205 9,000  Level Salt Lake Center
Sun 10:45:28 AM 40.3836 -111.9500 11° North 177 204 9,000  Level Salt Lake Center
Sun 10:45:52 AM 40.4039 -111.9578 344° North 157 181 9,000  Level Salt Lake Center
Sun 10:46:29 AM 40.4264 -111.9550 North 155 178 9,000  Level Salt Lake Center
Sun 10:46:53 AM 40.4481 -111.9625 345° North 160 184 9,000  Level Salt Lake Center
Sun 10:47:30 AM 40.4706 -111.9603 North 157 181 9,000  Level Salt Lake Center
Sun 10:47:53 AM 40.4919 -111.9675 346° North 153 176 9,000  Level Salt Lake Center
Sun 10:48:31 AM 40.5133 -111.9656 North 156 180 9,000  Level Salt Lake Center
Sun 10:48:54 AM 40.5361 -111.9722 347° North 162 186 9,000 -290 Level Salt Lake Center
Sun 10:49:33 AM 40.5578 -111.9706 North 160 184 8,700 -787 Descending Salt Lake Center
Sun 10:49:55 AM 40.5800 -111.9769 348° North 156 180 8,200 -885 Descending Salt Lake Center
Sun 10:50:34 AM 40.6006 -111.9747 North 155 178 7,800 -873 Descending Salt Lake Center
Sun 10:50:50 AM 40.6217 -111.9800 349° North 165 190 7,400 -1,180 Descending Salt Lake Center
Sun 10:51:35 AM 40.6575 -111.9819 358° North 168 193 6,600 -911 Descending Salt Lake Center
Sun 10:52:09 AM 40.6811 -111.9881 349° North 166 191 6,200 -774 Descending Salt Lake Center
Sun 10:52:37 AM 40.6997 -111.9864 North 154 177 5,800 -655 Descending Salt Lake Center
Sun 10:53:04 AM 40.7161 -111.9903 350° North 122 140 5,600 -590 Descending Salt Lake Center
Sun 10:53:38 AM 40.7339 -111.9903 360° North 126 145 5,200 -700 Descending Salt Lake Center
Sun 10:54:04 AM 40.7492 -111.9933 351° North 118 136 4,900 -689 Descending Salt Lake Center
Sun 10:54:39 AM 40.7669 -111.9947 357° North 122 140 4,500 -686 Descending Salt Lake Center

Login

Don't have an account? Register now (free) for customized features, flight alerts, and more!